createdAt,value
2019-01-06T00:00:23.016Z,1004.70
2019-01-06T00:01:23.004Z,1004.67
2019-01-06T00:02:22.995Z,1004.69
2019-01-06T00:03:22.988Z,1004.69
2019-01-06T00:04:22.973Z,1004.71
2019-01-06T00:05:22.964Z,1004.68
2019-01-06T00:06:22.954Z,1004.68
2019-01-06T00:07:22.942Z,1004.68
2019-01-06T00:08:22.940Z,1004.66
2019-01-06T00:09:22.923Z,1004.68
2019-01-06T00:10:22.914Z,1004.72
2019-01-06T00:11:22.900Z,1004.69
2019-01-06T00:12:22.889Z,1004.67
2019-01-06T00:13:22.884Z,1004.70
2019-01-06T00:14:22.870Z,1004.71
2019-01-06T00:15:22.864Z,1004.66
2019-01-06T00:16:22.850Z,1004.67
2019-01-06T00:17:22.839Z,1004.70
2019-01-06T00:18:22.830Z,1004.69
2019-01-06T00:19:22.820Z,1004.66
2019-01-06T00:20:22.805Z,1004.69
2019-01-06T00:21:22.796Z,1004.71
2019-01-06T00:22:22.792Z,1004.69
2019-01-06T00:23:22.778Z,1004.70
2019-01-06T00:24:22.767Z,1004.69
2019-01-06T00:25:22.756Z,1004.67
2019-01-06T00:26:22.746Z,1004.65
2019-01-06T00:27:22.743Z,1004.65
2019-01-06T00:28:22.733Z,1004.67
2019-01-06T00:29:22.715Z,1004.67
2019-01-06T00:30:22.706Z,1004.67
2019-01-06T00:31:22.696Z,1004.71
2019-01-06T00:32:22.685Z,1004.71
2019-01-06T00:33:22.680Z,1004.70
2019-01-06T00:34:22.667Z,1004.69
2019-01-06T00:35:22.654Z,1004.71
2019-01-06T00:36:22.644Z,1004.73
2019-01-06T00:37:22.632Z,1004.72
2019-01-06T00:38:22.623Z,1004.70
2019-01-06T00:39:22.609Z,1004.73
2019-01-06T00:40:22.597Z,1004.67
2019-01-06T00:41:22.592Z,1004.74
2019-01-06T00:42:22.580Z,1004.76
2019-01-06T00:43:22.596Z,1004.78
2019-01-06T00:44:22.560Z,1004.79
2019-01-06T00:45:22.549Z,1004.75
2019-01-06T00:46:22.545Z,1004.75
2019-01-06T00:47:22.529Z,1004.70
2019-01-06T00:48:22.518Z,1004.77
2019-01-06T00:49:22.506Z,1004.72
2019-01-06T00:50:22.498Z,1004.76
2019-01-06T00:51:22.488Z,1004.73
2019-01-06T00:52:22.475Z,1004.79
2019-01-06T00:53:22.470Z,1004.75
2019-01-06T00:54:22.460Z,1004.80
2019-01-06T00:55:22.450Z,1004.74
2019-01-06T00:56:22.436Z,1004.77
2019-01-06T00:57:22.426Z,1004.76
2019-01-06T00:58:22.418Z,1004.77
2019-01-06T00:59:22.400Z,1004.80
2019-01-06T01:00:22.398Z,1004.81
2019-01-06T01:01:22.385Z,1004.84
2019-01-06T01:02:22.373Z,1004.80
2019-01-06T01:03:22.364Z,1004.80
2019-01-06T01:04:22.352Z,1004.83
2019-01-06T01:05:22.354Z,1004.85
2019-01-06T01:06:22.334Z,1004.86
2019-01-06T01:07:22.324Z,1004.84
2019-01-06T01:08:22.311Z,1004.86
2019-01-06T01:09:22.302Z,1004.80
2019-01-06T01:10:22.290Z,1004.76
2019-01-06T01:11:22.281Z,1004.77
2019-01-06T01:12:22.270Z,1004.78
2019-01-06T01:13:22.258Z,1004.81
2019-01-06T01:14:22.249Z,1004.78
2019-01-06T01:15:22.241Z,1004.77
2019-01-06T01:16:22.228Z,1004.80
2019-01-06T01:17:22.214Z,1004.79
2019-01-06T01:18:22.209Z,1004.80
2019-01-06T01:19:22.203Z,1004.83
2019-01-06T01:20:22.185Z,1004.82
2019-01-06T01:21:22.174Z,1004.85
2019-01-06T01:22:22.164Z,1004.81
2019-01-06T01:23:22.155Z,1004.81
2019-01-06T01:24:22.144Z,1004.84
2019-01-06T01:25:22.134Z,1004.90
2019-01-06T01:26:22.126Z,1004.85
2019-01-06T01:27:22.112Z,1004.89
2019-01-06T01:28:22.106Z,1004.88
2019-01-06T01:29:22.093Z,1004.90
2019-01-06T01:30:22.082Z,1004.90
2019-01-06T01:31:22.079Z,1004.89
2019-01-06T01:32:22.061Z,1004.91
2019-01-06T01:33:22.052Z,1004.96
2019-01-06T01:34:22.038Z,1004.96
2019-01-06T01:35:22.026Z,1004.99
2019-01-06T01:36:22.017Z,1005.01
2019-01-06T01:37:22.010Z,1005.01
2019-01-06T01:38:22.009Z,1005.07
2019-01-06T01:39:21.989Z,1005.04
2019-01-06T01:40:21.976Z,1005.08
2019-01-06T01:41:21.969Z,1005.07
2019-01-06T01:42:21.956Z,1005.05
2019-01-06T01:43:21.944Z,1005.07
2019-01-06T01:44:21.934Z,1005.08
2019-01-06T01:45:21.925Z,1005.11
2019-01-06T01:46:21.913Z,1005.09
2019-01-06T01:47:21.907Z,1005.11
2019-01-06T01:48:21.892Z,1005.13
2019-01-06T01:49:21.881Z,1005.09
2019-01-06T01:50:21.875Z,1005.13
2019-01-06T01:51:21.864Z,1005.09
2019-01-06T01:52:21.879Z,1005.07
2019-01-06T01:53:21.870Z,1005.08
2019-01-06T01:54:21.832Z,1005.06
2019-01-06T01:55:21.820Z,1005.09
2019-01-06T01:56:21.814Z,1005.08
2019-01-06T01:57:21.797Z,1005.08
2019-01-06T01:58:21.818Z,1005.06
2019-01-06T01:59:21.778Z,1005.06
2019-01-06T02:00:21.769Z,1005.05
2019-01-06T02:01:21.759Z,1005.03
2019-01-06T02:02:21.751Z,1005.04
2019-01-06T02:03:21.737Z,1005.05
2019-01-06T02:04:21.726Z,1005.03
2019-01-06T02:05:21.750Z,1005.05
2019-01-06T02:06:21.710Z,1005.00
2019-01-06T02:07:21.698Z,1005.00
2019-01-06T02:08:21.684Z,1004.97
2019-01-06T02:09:21.677Z,1004.99
2019-01-06T02:10:21.667Z,1004.98
2019-01-06T02:11:21.654Z,1005.02
2019-01-06T02:12:21.643Z,1004.97
2019-01-06T02:13:21.632Z,1004.98
2019-01-06T02:14:21.621Z,1005.01
2019-01-06T02:15:21.618Z,1004.98
2019-01-06T02:16:21.602Z,1005.01
2019-01-06T02:17:21.592Z,1004.98
2019-01-06T02:18:21.582Z,1005.00
2019-01-06T02:19:21.571Z,1005.01
2019-01-06T02:20:21.558Z,1005.01
2019-01-06T02:21:21.549Z,1004.99
2019-01-06T02:22:21.541Z,1005.02
2019-01-06T02:23:21.521Z,1004.98
2019-01-06T02:24:21.516Z,1004.95
2019-01-06T02:25:21.507Z,1004.98
2019-01-06T02:26:21.496Z,1004.97
2019-01-06T02:27:21.486Z,1004.97
2019-01-06T02:28:21.474Z,1004.96
2019-01-06T02:29:21.464Z,1004.99
2019-01-06T02:30:21.463Z,1004.98
2019-01-06T02:31:21.446Z,1004.99
2019-01-06T02:32:21.432Z,1005.01
2019-01-06T02:33:21.429Z,1005.03
2019-01-06T02:34:21.419Z,1005.02
2019-01-06T02:35:21.404Z,1005.01
2019-01-06T02:36:21.396Z,1005.08
2019-01-06T02:37:21.381Z,1005.03
2019-01-06T02:38:21.375Z,1005.00
2019-01-06T02:39:21.370Z,1005.02
2019-01-06T02:40:21.351Z,1005.05
2019-01-06T02:41:21.340Z,1004.99
2019-01-06T02:42:21.333Z,1004.98
2019-01-06T02:43:21.323Z,1005.01
2019-01-06T02:44:21.306Z,1004.99
2019-01-06T02:45:21.301Z,1005.00
2019-01-06T02:46:21.286Z,1004.97
2019-01-06T02:47:21.275Z,1005.00
2019-01-06T02:48:21.268Z,1005.03
2019-01-06T02:49:21.260Z,1005.00
2019-01-06T02:50:21.245Z,1005.02
2019-01-06T02:51:21.235Z,1005.03
2019-01-06T02:52:21.222Z,1005.05
2019-01-06T02:53:21.212Z,1005.05
2019-01-06T02:54:21.207Z,1005.06
2019-01-06T02:55:21.200Z,1005.07
2019-01-06T02:56:21.181Z,1005.11
2019-01-06T02:57:21.175Z,1005.16
2019-01-06T02:58:21.161Z,1005.12
2019-01-06T02:59:21.151Z,1005.11
2019-01-06T03:00:21.139Z,1005.09
2019-01-06T03:01:21.128Z,1005.07
2019-01-06T03:02:21.120Z,1005.07
2019-01-06T03:03:21.112Z,1005.02
2019-01-06T03:04:21.099Z,1005.04
2019-01-06T03:05:21.087Z,1005.05
2019-01-06T03:06:21.081Z,1005.01
2019-01-06T03:07:21.073Z,1005.07
2019-01-06T03:08:21.056Z,1005.06
2019-01-06T03:09:21.046Z,1005.03
2019-01-06T03:10:21.033Z,1005.02
2019-01-06T03:11:21.028Z,1005.06
2019-01-06T03:12:21.012Z,1005.06
2019-01-06T03:13:21.002Z,1005.04
2019-01-06T03:14:20.992Z,1005.05
2019-01-06T03:15:20.982Z,1005.07
2019-01-06T03:16:20.972Z,1005.06
2019-01-06T03:17:20.964Z,1005.03
2019-01-06T03:18:20.952Z,1004.99
2019-01-06T03:19:20.942Z,1005.02
2019-01-06T03:20:20.927Z,1004.96
2019-01-06T03:21:20.920Z,1004.94
2019-01-06T03:22:20.912Z,1004.97
2019-01-06T03:23:20.899Z,1004.96
2019-01-06T03:24:20.887Z,1004.92
2019-01-06T03:25:20.877Z,1004.93
2019-01-06T03:26:20.870Z,1004.93
2019-01-06T03:27:20.858Z,1004.91
2019-01-06T03:28:20.843Z,1004.87
2019-01-06T03:29:20.836Z,1004.90
2019-01-06T03:30:20.826Z,1004.89
2019-01-06T03:31:20.816Z,1004.85
2019-01-06T03:32:20.805Z,1004.82
2019-01-06T03:33:20.794Z,1004.86
2019-01-06T03:34:20.782Z,1004.86
2019-01-06T03:35:20.775Z,1004.84
2019-01-06T03:36:20.760Z,1004.82
2019-01-06T03:37:20.753Z,1004.81
2019-01-06T03:38:20.743Z,1004.80
2019-01-06T03:39:20.730Z,1004.79
2019-01-06T03:40:20.719Z,1004.75
2019-01-06T03:41:20.709Z,1004.78
2019-01-06T03:42:20.702Z,1004.77
2019-01-06T03:43:20.699Z,1004.79
2019-01-06T03:44:20.710Z,1004.80
2019-01-06T03:45:20.668Z,1004.80
2019-01-06T03:46:20.657Z,1004.84
2019-01-06T03:47:20.643Z,1004.79
2019-01-06T03:48:20.634Z,1004.88
2019-01-06T03:49:20.633Z,1004.80
2019-01-06T03:50:20.613Z,1004.77
2019-01-06T03:51:20.606Z,1004.77
2019-01-06T03:52:20.604Z,1004.75
2019-01-06T03:53:20.582Z,1004.76
2019-01-06T03:54:20.570Z,1004.76
2019-01-06T03:55:20.563Z,1004.76
2019-01-06T03:56:20.550Z,1004.75
2019-01-06T03:57:20.539Z,1004.75
2019-01-06T03:58:20.533Z,1004.77
2019-01-06T03:59:20.518Z,1004.76
2019-01-06T04:00:20.509Z,1004.79
2019-01-06T04:01:20.499Z,1004.73
2019-01-06T04:02:20.491Z,1004.73
2019-01-06T04:03:20.483Z,1004.72
2019-01-06T04:04:20.466Z,1004.76
2019-01-06T04:05:20.457Z,1004.71
2019-01-06T04:06:20.443Z,1004.72
2019-01-06T04:07:20.435Z,1004.72
2019-01-06T04:08:20.423Z,1004.77
2019-01-06T04:09:20.413Z,1004.74
2019-01-06T04:10:20.410Z,1004.73
2019-01-06T04:11:20.407Z,1004.71
2019-01-06T04:12:20.385Z,1004.74
2019-01-06T04:13:20.377Z,1004.69
2019-01-06T04:14:20.364Z,1004.74
2019-01-06T04:15:20.351Z,1004.75
2019-01-06T04:16:20.340Z,1004.77
2019-01-06T04:17:20.342Z,1004.71
2019-01-06T04:18:20.319Z,1004.72
2019-01-06T04:19:20.309Z,1004.76
2019-01-06T04:20:20.300Z,1004.71
2019-01-06T04:21:20.287Z,1004.72
2019-01-06T04:22:20.277Z,1004.76
2019-01-06T04:23:20.271Z,1004.73
2019-01-06T04:24:20.257Z,1004.70
2019-01-06T04:25:20.243Z,1004.71
2019-01-06T04:26:20.236Z,1004.71
2019-01-06T04:27:20.226Z,1004.72
2019-01-06T04:28:20.213Z,1004.70
2019-01-06T04:29:20.205Z,1004.73
2019-01-06T04:30:20.192Z,1004.75
2019-01-06T04:31:20.183Z,1004.74
2019-01-06T04:32:20.171Z,1004.77
2019-01-06T04:33:20.166Z,1004.77
2019-01-06T04:34:20.150Z,1004.80
2019-01-06T04:35:20.139Z,1004.74
2019-01-06T04:36:20.129Z,1004.77
2019-01-06T04:37:20.119Z,1004.73
2019-01-06T04:38:20.109Z,1004.80
2019-01-06T04:39:20.099Z,1004.76
2019-01-06T04:40:20.088Z,1004.76
2019-01-06T04:41:20.079Z,1004.76
2019-01-06T04:42:20.068Z,1004.77
2019-01-06T04:43:20.054Z,1004.81
2019-01-06T04:44:20.099Z,1004.80
2019-01-06T04:45:20.040Z,1004.83
2019-01-06T04:46:20.026Z,1004.83
2019-01-06T04:47:20.014Z,1004.81
2019-01-06T04:48:20.003Z,1004.84
2019-01-06T04:49:19.994Z,1004.85
2019-01-06T04:50:19.983Z,1004.85
2019-01-06T04:51:19.972Z,1004.86
2019-01-06T04:52:19.963Z,1004.84
2019-01-06T04:53:19.951Z,1004.85
2019-01-06T04:54:19.944Z,1004.85
2019-01-06T04:55:19.930Z,1004.87
2019-01-06T04:56:19.919Z,1004.84
2019-01-06T04:57:19.909Z,1004.84
2019-01-06T04:58:19.900Z,1004.86
2019-01-06T04:59:19.891Z,1004.86
2019-01-06T05:00:19.953Z,1004.90
2019-01-06T05:01:19.867Z,1004.91
2019-01-06T05:02:19.860Z,1004.88
2019-01-06T05:03:19.848Z,1004.89
2019-01-06T05:04:19.836Z,1004.94
2019-01-06T05:05:19.826Z,1004.94
2019-01-06T05:06:19.815Z,1004.96
2019-01-06T05:07:19.805Z,1004.96
2019-01-06T05:08:19.797Z,1004.93
2019-01-06T05:09:19.782Z,1004.96
2019-01-06T05:10:19.773Z,1004.97
2019-01-06T05:11:19.767Z,1004.95
2019-01-06T05:12:19.751Z,1004.97
2019-01-06T05:13:19.746Z,1004.95
2019-01-06T05:14:19.731Z,1004.93
2019-01-06T05:15:19.721Z,1004.96
2019-01-06T05:16:19.709Z,1004.98
2019-01-06T05:17:19.700Z,1004.94
2019-01-06T05:18:19.698Z,1004.95
2019-01-06T05:19:19.681Z,1004.92
2019-01-06T05:20:19.671Z,1004.98
2019-01-06T05:21:19.657Z,1004.97
2019-01-06T05:22:19.654Z,1004.92
2019-01-06T05:23:19.637Z,1004.94
2019-01-06T05:24:19.628Z,1004.93
2019-01-06T05:25:19.617Z,1004.94
2019-01-06T05:26:19.607Z,1004.91
2019-01-06T05:27:19.595Z,1004.93
2019-01-06T05:28:19.589Z,1004.90
2019-01-06T05:29:19.575Z,1004.91
2019-01-06T05:30:19.559Z,1004.90
2019-01-06T05:31:19.568Z,1004.89
2019-01-06T05:32:19.548Z,1004.92
2019-01-06T05:33:19.534Z,1004.90
2019-01-06T05:34:19.522Z,1004.89
2019-01-06T05:35:19.512Z,1004.90
2019-01-06T05:36:19.500Z,1004.91
2019-01-06T05:37:19.491Z,1004.92
2019-01-06T05:38:19.481Z,1004.88
2019-01-06T05:39:19.466Z,1004.94
2019-01-06T05:40:19.459Z,1004.92
2019-01-06T05:41:19.452Z,1004.92
2019-01-06T05:42:19.438Z,1004.91
2019-01-06T05:43:19.429Z,1004.96
2019-01-06T05:44:19.417Z,1004.94
2019-01-06T05:45:19.408Z,1004.96
2019-01-06T05:46:19.432Z,1004.93
2019-01-06T05:47:19.390Z,1004.89
2019-01-06T05:48:19.375Z,1004.92
2019-01-06T05:49:19.370Z,1004.92
2019-01-06T05:50:19.356Z,1004.89
2019-01-06T05:51:19.344Z,1004.87
2019-01-06T05:52:19.332Z,1004.91
2019-01-06T05:53:19.323Z,1004.94
2019-01-06T05:54:19.317Z,1004.90
2019-01-06T05:55:19.306Z,1004.95
2019-01-06T05:56:19.342Z,1004.92
2019-01-06T05:57:19.282Z,1004.89
2019-01-06T05:58:19.272Z,1004.90
2019-01-06T05:59:19.257Z,1004.89
2019-01-06T06:00:19.251Z,1004.92
2019-01-06T06:01:19.239Z,1004.93
2019-01-06T06:02:19.229Z,1004.92
2019-01-06T06:03:19.219Z,1004.90
2019-01-06T06:04:19.208Z,1004.91
2019-01-06T06:05:19.197Z,1004.93
2019-01-06T06:06:19.187Z,1004.92
2019-01-06T06:07:19.176Z,1004.97
2019-01-06T06:08:19.164Z,1004.98
2019-01-06T06:09:19.157Z,1004.96
2019-01-06T06:10:19.144Z,1004.99
2019-01-06T06:11:19.136Z,1004.97
2019-01-06T06:12:19.121Z,1004.95
2019-01-06T06:13:19.112Z,1004.99
2019-01-06T06:14:19.105Z,1005.02
2019-01-06T06:15:19.096Z,1004.99
2019-01-06T06:16:19.084Z,1005.00
2019-01-06T06:17:19.072Z,1005.03
2019-01-06T06:18:19.061Z,1005.05
2019-01-06T06:19:19.053Z,1005.03
2019-01-06T06:20:19.040Z,1005.05
2019-01-06T06:21:19.032Z,1005.15
2019-01-06T06:22:19.021Z,1005.14
2019-01-06T06:23:19.009Z,1005.18
2019-01-06T06:24:19.002Z,1005.19
2019-01-06T06:25:18.988Z,1005.18
2019-01-06T06:26:18.978Z,1005.15
2019-01-06T06:27:18.972Z,1005.21
2019-01-06T06:28:18.965Z,1005.17
2019-01-06T06:29:18.945Z,1005.21
2019-01-06T06:30:18.935Z,1005.19
2019-01-06T06:31:18.927Z,1005.21
2019-01-06T06:32:18.914Z,1005.21
2019-01-06T06:33:18.907Z,1005.24
2019-01-06T06:34:18.897Z,1005.22
2019-01-06T06:35:18.886Z,1005.21
2019-01-06T06:36:18.884Z,1005.22
2019-01-06T06:37:18.866Z,1005.21
2019-01-06T06:38:18.865Z,1005.22
2019-01-06T06:39:18.842Z,1005.23
2019-01-06T06:40:18.830Z,1005.23
2019-01-06T06:41:18.818Z,1005.26
2019-01-06T06:42:18.813Z,1005.24
2019-01-06T06:43:18.807Z,1005.28
2019-01-06T06:44:18.790Z,1005.29
2019-01-06T06:45:18.775Z,1005.27
2019-01-06T06:46:18.765Z,1005.30
2019-01-06T06:47:18.758Z,1005.31
2019-01-06T06:48:18.747Z,1005.27
2019-01-06T06:49:18.736Z,1005.26
2019-01-06T06:50:18.728Z,1005.28
2019-01-06T06:51:18.718Z,1005.29
2019-01-06T06:52:18.705Z,1005.34
2019-01-06T06:53:18.692Z,1005.34
2019-01-06T06:54:18.684Z,1005.33
2019-01-06T06:55:18.670Z,1005.32
2019-01-06T06:56:18.664Z,1005.35
2019-01-06T06:57:18.652Z,1005.38
2019-01-06T06:58:18.642Z,1005.37
2019-01-06T06:59:18.630Z,1005.39
2019-01-06T07:00:18.621Z,1005.40
2019-01-06T07:01:18.616Z,1005.38
2019-01-06T07:02:18.599Z,1005.44
2019-01-06T07:03:18.590Z,1005.47
2019-01-06T07:04:18.577Z,1005.49
2019-01-06T07:05:18.570Z,1005.50
2019-01-06T07:06:18.558Z,1005.52
2019-01-06T07:07:18.547Z,1005.48
2019-01-06T07:08:18.538Z,1005.50
2019-01-06T07:09:18.527Z,1005.53
2019-01-06T07:10:18.515Z,1005.57
2019-01-06T07:11:18.509Z,1005.56
2019-01-06T07:12:18.498Z,1005.59
2019-01-06T07:13:18.484Z,1005.57
2019-01-06T07:14:18.476Z,1005.58
2019-01-06T07:15:18.470Z,1005.58
2019-01-06T07:16:18.454Z,1005.58
2019-01-06T07:17:18.443Z,1005.60
2019-01-06T07:18:18.431Z,1005.60
2019-01-06T07:19:18.422Z,1005.62
2019-01-06T07:20:18.412Z,1005.64
2019-01-06T07:21:18.401Z,1005.64
2019-01-06T07:22:18.392Z,1005.68
2019-01-06T07:23:18.379Z,1005.66
2019-01-06T07:24:18.372Z,1005.70
2019-01-06T07:25:18.357Z,1005.67
2019-01-06T07:26:18.352Z,1005.67
2019-01-06T07:27:18.338Z,1005.72
2019-01-06T07:28:18.331Z,1005.73
2019-01-06T07:29:18.318Z,1005.73
2019-01-06T07:30:18.310Z,1005.77
2019-01-06T07:31:18.299Z,1005.82
2019-01-06T07:32:18.285Z,1005.79
2019-01-06T07:33:18.275Z,1005.78
2019-01-06T07:34:18.276Z,1005.84
2019-01-06T07:35:18.258Z,1005.82
2019-01-06T07:36:18.243Z,1005.85
2019-01-06T07:37:18.234Z,1005.85
2019-01-06T07:38:18.224Z,1005.89
2019-01-06T07:39:18.214Z,1005.89
2019-01-06T07:40:18.202Z,1005.89
2019-01-06T07:41:18.197Z,1005.89
2019-01-06T07:42:18.181Z,1005.94
2019-01-06T07:43:18.173Z,1005.94
2019-01-06T07:44:18.161Z,1005.95
2019-01-06T07:45:18.150Z,1005.99
2019-01-06T07:46:18.146Z,1005.97
2019-01-06T07:47:18.130Z,1005.99
2019-01-06T07:48:18.125Z,1005.99
2019-01-06T07:49:18.120Z,1006.04
2019-01-06T07:50:18.098Z,1006.01
2019-01-06T07:51:18.083Z,1006.04
2019-01-06T07:52:18.129Z,1006.06
2019-01-06T07:53:18.065Z,1006.03
2019-01-06T07:54:18.056Z,1006.04
2019-01-06T07:55:18.049Z,1006.04
2019-01-06T07:56:18.039Z,1006.07
2019-01-06T07:57:18.025Z,1006.07
2019-01-06T07:58:18.015Z,1006.08
2019-01-06T07:59:18.004Z,1006.06
2019-01-06T08:00:17.991Z,1006.10
2019-01-06T08:01:17.981Z,1006.08
2019-01-06T08:02:17.978Z,1006.07
2019-01-06T08:03:17.964Z,1006.13
2019-01-06T08:04:17.950Z,1006.09
2019-01-06T08:05:17.943Z,1006.10
2019-01-06T08:06:17.930Z,1006.13
2019-01-06T08:07:17.931Z,1006.14
2019-01-06T08:08:17.910Z,1006.17
2019-01-06T08:09:17.910Z,1006.17
2019-01-06T08:10:17.887Z,1006.17
2019-01-06T08:11:17.880Z,1006.20
2019-01-06T08:12:17.868Z,1006.19
2019-01-06T08:13:17.857Z,1006.20
2019-01-06T08:14:17.848Z,1006.23
2019-01-06T08:15:17.836Z,1006.23
2019-01-06T08:16:17.827Z,1006.23
2019-01-06T08:17:17.819Z,1006.22
2019-01-06T08:18:17.806Z,1006.24
2019-01-06T08:19:17.798Z,1006.23
2019-01-06T08:20:17.781Z,1006.28
2019-01-06T08:21:17.772Z,1006.29
2019-01-06T08:22:17.762Z,1006.27
2019-01-06T08:23:17.753Z,1006.27
2019-01-06T08:24:17.742Z,1006.30
2019-01-06T08:25:17.733Z,1006.30
2019-01-06T08:26:17.724Z,1006.34
2019-01-06T08:27:17.710Z,1006.33
2019-01-06T08:28:17.700Z,1006.30
2019-01-06T08:29:17.688Z,1006.31
2019-01-06T08:30:17.683Z,1006.32
2019-01-06T08:31:17.669Z,1006.35
2019-01-06T08:32:17.656Z,1006.36
2019-01-06T08:33:17.647Z,1006.37
2019-01-06T08:34:17.637Z,1006.36
2019-01-06T08:35:17.632Z,1006.38
2019-01-06T08:36:17.616Z,1006.39
2019-01-06T08:37:17.608Z,1006.35
2019-01-06T08:38:17.590Z,1006.37
2019-01-06T08:39:17.587Z,1006.34
2019-01-06T08:40:17.575Z,1006.39
2019-01-06T08:41:17.565Z,1006.43
2019-01-06T08:42:17.555Z,1006.42
2019-01-06T08:43:17.542Z,1006.43
2019-01-06T08:44:17.539Z,1006.46
2019-01-06T08:45:17.524Z,1006.47
2019-01-06T08:46:17.514Z,1006.50
2019-01-06T08:47:17.501Z,1006.52
2019-01-06T08:48:17.491Z,1006.52
2019-01-06T08:49:17.482Z,1006.51
2019-01-06T08:50:17.469Z,1006.53
2019-01-06T08:51:17.460Z,1006.56
2019-01-06T08:52:17.450Z,1006.56
2019-01-06T08:53:17.441Z,1006.52
2019-01-06T08:54:17.429Z,1006.53
2019-01-06T08:55:17.419Z,1006.52
2019-01-06T08:56:17.408Z,1006.55
2019-01-06T08:57:17.399Z,1006.59
2019-01-06T08:58:17.387Z,1006.56
2019-01-06T08:59:17.377Z,1006.59
2019-01-06T09:00:17.365Z,1006.55
2019-01-06T09:01:17.354Z,1006.59
2019-01-06T09:02:17.348Z,1006.65
2019-01-06T09:03:17.337Z,1006.65
2019-01-06T09:04:17.321Z,1006.63
2019-01-06T09:05:17.316Z,1006.67
2019-01-06T09:06:17.305Z,1006.69
2019-01-06T09:07:17.291Z,1006.68
2019-01-06T09:08:17.281Z,1006.68
2019-01-06T09:09:17.273Z,1006.71
2019-01-06T09:10:17.261Z,1006.71
2019-01-06T09:11:17.250Z,1006.73
2019-01-06T09:12:17.238Z,1006.71
2019-01-06T09:13:17.230Z,1006.73
2019-01-06T09:14:17.219Z,1006.72
2019-01-06T09:15:17.213Z,1006.70
2019-01-06T09:16:17.199Z,1006.72
2019-01-06T09:17:17.192Z,1006.71
2019-01-06T09:18:17.178Z,1006.71
2019-01-06T09:19:17.164Z,1006.73
2019-01-06T09:20:17.156Z,1006.73
2019-01-06T09:21:17.144Z,1006.76
2019-01-06T09:22:17.141Z,1006.74
2019-01-06T09:23:17.131Z,1006.74
2019-01-06T09:24:17.115Z,1006.73
2019-01-06T09:25:17.101Z,1006.76
2019-01-06T09:26:17.094Z,1006.73
2019-01-06T09:27:17.083Z,1006.79
2019-01-06T09:28:17.073Z,1006.78
2019-01-06T09:29:17.062Z,1006.81
2019-01-06T09:30:17.053Z,1006.80
2019-01-06T09:31:17.047Z,1006.80
2019-01-06T09:32:17.035Z,1006.81
2019-01-06T09:33:17.022Z,1006.82
2019-01-06T09:34:17.015Z,1006.81
2019-01-06T09:35:17.002Z,1006.86
2019-01-06T09:36:16.993Z,1006.83
2019-01-06T09:37:16.979Z,1006.85
2019-01-06T09:38:16.970Z,1006.85
2019-01-06T09:39:16.964Z,1006.90
2019-01-06T09:40:16.949Z,1006.88
2019-01-06T09:41:16.937Z,1006.86
2019-01-06T09:42:16.925Z,1006.85
2019-01-06T09:43:16.919Z,1006.86
2019-01-06T09:44:16.915Z,1006.91
2019-01-06T09:45:16.900Z,1006.86
2019-01-06T09:46:17.030Z,1006.91
2019-01-06T09:47:16.896Z,1006.85
2019-01-06T09:48:16.866Z,1006.83
2019-01-06T09:49:16.856Z,1006.87
2019-01-06T09:50:16.847Z,1006.84
2019-01-06T09:51:16.839Z,1006.84
2019-01-06T09:52:16.821Z,1006.83
2019-01-06T09:53:16.811Z,1006.81
2019-01-06T09:54:16.804Z,1006.79
2019-01-06T09:55:16.801Z,1006.82
2019-01-06T09:56:16.779Z,1006.86
2019-01-06T09:57:16.770Z,1006.79
2019-01-06T09:58:16.763Z,1006.82
2019-01-06T09:59:16.750Z,1006.79
2019-01-06T10:00:16.745Z,1006.79
2019-01-06T10:01:16.728Z,1006.79
2019-01-06T10:02:16.717Z,1006.79
2019-01-06T10:03:16.708Z,1006.79
2019-01-06T10:04:16.701Z,1006.77
2019-01-06T10:05:16.693Z,1006.73
2019-01-06T10:06:16.677Z,1006.75
2019-01-06T10:07:16.667Z,1006.77
2019-01-06T10:08:16.655Z,1006.78
2019-01-06T10:09:16.657Z,1006.75
2019-01-06T10:10:16.642Z,1006.75
2019-01-06T10:11:16.626Z,1006.78
2019-01-06T10:12:16.614Z,1006.76
2019-01-06T10:13:16.606Z,1006.74
2019-01-06T10:14:16.598Z,1006.74
2019-01-06T10:15:16.586Z,1006.74
2019-01-06T10:16:16.573Z,1006.74
2019-01-06T10:17:16.561Z,1006.75
2019-01-06T10:18:16.559Z,1006.74
2019-01-06T10:19:16.543Z,1006.76
2019-01-06T10:20:16.533Z,1006.75
2019-01-06T10:21:16.523Z,1006.79
2019-01-06T10:22:16.511Z,1006.80
2019-01-06T10:23:16.504Z,1006.77
2019-01-06T10:24:16.506Z,1006.83
2019-01-06T10:25:16.479Z,1006.80
2019-01-06T10:26:16.467Z,1006.79
2019-01-06T10:27:16.460Z,1006.80
2019-01-06T10:28:16.454Z,1006.86
2019-01-06T10:29:16.443Z,1006.80
2019-01-06T10:30:16.427Z,1006.77
2019-01-06T10:31:16.416Z,1006.79
2019-01-06T10:32:16.412Z,1006.81
2019-01-06T10:33:16.395Z,1006.79
2019-01-06T10:34:16.386Z,1006.78
2019-01-06T10:35:16.378Z,1006.76
2019-01-06T10:36:16.360Z,1006.73
2019-01-06T10:37:16.356Z,1006.77
2019-01-06T10:38:16.345Z,1006.76
2019-01-06T10:39:16.335Z,1006.79
2019-01-06T10:40:16.326Z,1006.78
2019-01-06T10:41:16.313Z,1006.80
2019-01-06T10:42:16.309Z,1006.77
2019-01-06T10:43:16.296Z,1006.77
2019-01-06T10:44:16.279Z,1006.75
2019-01-06T10:45:16.271Z,1006.72
2019-01-06T10:46:16.263Z,1006.73
2019-01-06T10:47:16.326Z,1006.75
2019-01-06T10:48:16.244Z,1006.70
2019-01-06T10:49:16.233Z,1006.72
2019-01-06T10:50:16.218Z,1006.72
2019-01-06T10:51:16.212Z,1006.73
2019-01-06T10:52:16.198Z,1006.70
2019-01-06T10:53:16.188Z,1006.73
2019-01-06T10:54:16.178Z,1006.70
2019-01-06T10:55:16.170Z,1006.73
2019-01-06T10:56:16.159Z,1006.72
2019-01-06T10:57:16.149Z,1006.73
2019-01-06T10:58:16.140Z,1006.73
2019-01-06T10:59:16.132Z,1006.69
2019-01-06T11:00:16.114Z,1006.72
2019-01-06T11:01:16.110Z,1006.72
2019-01-06T11:02:16.095Z,1006.74
2019-01-06T11:03:16.083Z,1006.74
2019-01-06T11:04:16.076Z,1006.78
2019-01-06T11:05:16.064Z,1006.74
2019-01-06T11:06:16.057Z,1006.76
2019-01-06T11:07:16.044Z,1006.75
2019-01-06T11:08:17.959Z,1006.77
2019-01-06T11:09:16.016Z,1006.77
2019-01-06T11:10:16.015Z,1006.80
2019-01-06T11:11:16.000Z,1006.79
2019-01-06T11:12:15.992Z,1006.78
2019-01-06T11:13:15.979Z,1006.83
2019-01-06T11:14:15.969Z,1006.78
2019-01-06T11:15:15.964Z,1006.79
2019-01-06T11:16:15.952Z,1006.80
2019-01-06T11:17:15.936Z,1006.77
2019-01-06T11:18:15.925Z,1006.78
2019-01-06T11:19:15.915Z,1006.78
2019-01-06T11:20:15.904Z,1006.75
2019-01-06T11:21:15.894Z,1006.76
2019-01-06T11:22:15.883Z,1006.77
2019-01-06T11:23:15.874Z,1006.74
2019-01-06T11:24:15.862Z,1006.79
2019-01-06T11:25:15.854Z,1006.81
2019-01-06T11:26:15.842Z,1006.79
2019-01-06T11:27:15.829Z,1006.78
2019-01-06T11:28:15.825Z,1006.76
2019-01-06T11:29:15.823Z,1006.77
2019-01-06T11:30:15.800Z,1006.81
2019-01-06T11:31:15.789Z,1006.82
2019-01-06T11:32:15.791Z,1006.80
2019-01-06T11:33:15.769Z,1006.80
2019-01-06T11:34:15.772Z,1006.79
2019-01-06T11:35:15.750Z,1006.81
2019-01-06T11:36:15.731Z,1006.82
2019-01-06T11:37:15.723Z,1006.83
2019-01-06T11:38:15.724Z,1006.83
2019-01-06T11:39:15.706Z,1006.83
2019-01-06T11:40:15.696Z,1006.81
2019-01-06T11:41:15.689Z,1006.81
2019-01-06T11:42:15.675Z,1006.79
2019-01-06T11:43:15.738Z,1006.81
2019-01-06T11:44:15.658Z,1006.75
2019-01-06T11:45:15.643Z,1006.79
2019-01-06T11:46:15.636Z,1006.76
2019-01-06T11:47:15.621Z,1006.76
2019-01-06T11:48:15.622Z,1006.82
2019-01-06T11:49:15.600Z,1006.78
2019-01-06T11:50:15.592Z,1006.73
2019-01-06T11:51:15.583Z,1006.74
2019-01-06T11:52:15.571Z,1006.78
2019-01-06T11:53:15.562Z,1006.76
2019-01-06T11:54:15.542Z,1006.70
2019-01-06T11:55:15.551Z,1006.71
2019-01-06T11:56:15.528Z,1006.77
2019-01-06T11:57:15.521Z,1006.69
2019-01-06T11:58:15.509Z,1006.69
2019-01-06T11:59:15.498Z,1006.67
2019-01-06T12:00:15.484Z,1006.63
2019-01-06T12:01:15.476Z,1006.64
2019-01-06T12:02:15.467Z,1006.64
2019-01-06T12:03:15.456Z,1006.64
2019-01-06T12:04:15.446Z,1006.65
2019-01-06T12:05:15.437Z,1006.61